Time;durP1;ratioP1;P1;durP2;ratioP2;P2;SDS_P1;SDS_P2;PMS_P1;PMS_P2;Temp;Humidity;BMP_temperature;BMP_pressure;BME280_temperature;BME280_humidity;BME280_pressure;Samples;Min_cycle;Max_cycle;Signal;HPM_P1;HPM_P2
2021/12/10 00:01:01;;;;;;;39.03;17.42;;;5.20;99.90;;;;;;5055835;28;20029;-84
2021/12/10 00:03:33;;;;;;;42.78;16.25;;;5.20;99.90;;;;;;5055984;28;20025;-84
2021/12/10 00:06:05;;;;;;;39.20;15.10;;;5.20;99.90;;;;;;5073905;28;20082;-84
2021/12/10 00:08:34;;;;;;;34.97;14.68;;;5.10;99.90;;;;;;5073994;28;20074;-84
2021/12/10 00:11:06;;;;;;;33.30;13.43;;;5.20;99.90;;;;;;5073789;28;20032;-84
2021/12/10 00:13:32;;;;;;;34.97;14.73;;;5.10;99.90;;;;;;5073668;28;20032;-84
2021/12/10 00:15:57;;;;;;;30.63;14.23;;;5.10;99.90;;;;;;5055978;28;20036;-84
2021/12/10 00:18:31;;;;;;;36.75;14.98;;;5.10;99.90;;;;;;5073522;28;20028;-84
2021/12/10 00:20:58;;;;;;;37.95;16.10;;;5.10;99.90;;;;;;5055707;28;20033;-84
2021/12/10 00:23:28;;;;;;;33.63;15.02;;;5.10;99.90;;;;;;5055776;28;20025;-84
2021/12/10 00:25:54;;;;;;;39.08;15.80;;;5.10;99.90;;;;;;5074016;28;20028;-84
2021/12/10 00:28:23;;;;;;;44.80;16.25;;;5.10;99.90;;;;;;5073654;28;20036;-84
2021/12/10 00:31:17;;;;;;;34.88;14.68;;;5.10;99.90;;;;;;5059020;28;20020;-84
2021/12/10 00:33:52;;;;;;;34.92;16.27;;;5.10;99.90;;;;;;5077969;28;20368;-84
2021/12/10 00:36:19;;;;;;;41.35;15.52;;;5.10;99.90;;;;;;5059827;28;20028;-84
2021/12/10 00:38:45;;;;;;;33.75;15.05;;;5.00;99.90;;;;;;5059594;28;20074;-84
2021/12/10 00:41:11;;;;;;;35.47;15.60;;;4.90;99.90;;;;;;5077586;28;20107;-84
2021/12/10 00:43:38;;;;;;;32.60;14.95;;;4.90;99.90;;;;;;5059789;28;20455;-84
2021/12/10 00:46:04;;;;;;;34.72;15.80;;;4.90;99.90;;;;;;5077508;28;20537;-84
2021/12/10 00:48:30;;;;;;;33.45;15.13;;;4.90;99.90;;;;;;5059449;28;20032;-84
2021/12/10 00:50:58;;;;;;;34.35;14.20;;;5.00;99.90;;;;;;5059661;28;20066;-84
2021/12/10 00:53:24;;;;;;;37.33;16.20;;;4.90;99.90;;;;;;5077355;28;20361;-84
2021/12/10 00:55:51;;;;;;;32.13;14.48;;;5.00;99.90;;;;;;5077401;28;20476;-84
2021/12/10 00:58:46;;;;;;;30.92;14.60;;;5.00;99.90;;;;;;5077060;28;20043;-84
2021/12/10 01:01:17;;;;;;;32.65;14.02;;;5.00;99.90;;;;;;5077637;28;20090;-84
2021/12/10 01:04:08;;;;;;;33.60;15.15;;;4.90;99.90;;;;;;5059440;28;20032;-84
2021/12/10 01:06:34;;;;;;;35.63;15.57;;;4.90;99.90;;;;;;5077452;28;20028;-85
2021/12/10 01:09:05;;;;;;;34.75;14.45;;;5.00;99.90;;;;;;5077362;28;20058;-84
2021/12/10 01:11:35;;;;;;;29.45;13.23;;;5.00;99.90;;;;;;5059267;28;20039;-84
2021/12/10 01:14:14;;;;;;;39.60;15.98;;;5.00;99.90;;;;;;5077084;28;20016;-84
2021/12/10 01:30:49;;;;;;;31.30;14.63;;;5.00;99.90;;;;;;5057045;28;20147;-84
2021/12/10 01:33:17;;;;;;;33.00;14.77;;;5.00;99.90;;;;;;5057148;28;20060;-85
2021/12/10 01:35:48;;;;;;;30.75;12.77;;;5.00;99.90;;;;;;5056695;28;20031;-84
2021/12/10 01:38:14;;;;;;;26.83;12.32;;;5.00;99.90;;;;;;5056891;28;20021;-84
2021/12/10 01:40:43;;;;;;;26.65;13.93;;;5.00;99.90;;;;;;5055049;28;20144;-84
2021/12/10 01:43:22;;;;;;;29.27;13.48;;;5.10;99.90;;;;;;5055404;28;20053;-84
2021/12/10 01:45:48;;;;;;;31.35;12.68;;;5.00;99.90;;;;;;5055285;28;20054;-84
2021/12/10 01:48:22;;;;;;;27.58;12.82;;;5.10;99.90;;;;;;5056673;28;20055;-84
2021/12/10 01:50:49;;;;;;;22.48;12.32;;;5.10;99.90;;;;;;5055202;28;20032;-84
2021/12/10 01:53:17;;;;;;;29.80;12.00;;;5.00;99.90;;;;;;5038497;28;20039;-84
2021/12/10 01:55:46;;;;;;;25.42;12.05;;;5.10;99.90;;;;;;5054988;28;20035;-84
2021/12/10 01:58:17;;;;;;;32.40;10.95;;;5.10;99.90;;;;;;5056123;28;20033;-84
2021/12/10 02:00:46;;;;;;;23.10;10.48;;;5.10;99.90;;;;;;5056297;28;20705;-84
2021/12/10 02:03:55;;;;;;;22.23;10.70;;;5.10;99.90;;;;;;5055900;28;20159;-84
2021/12/10 02:06:21;;;;;;;20.88;10.02;;;5.10;99.90;;;;;;5056361;28;20057;-84
2021/12/10 02:08:47;;;;;;;25.80;11.63;;;4.90;99.90;;;;;;5054763;28;20029;-84
2021/12/10 02:11:13;;;;;;;24.00;10.80;;;4.90;99.90;;;;;;5038135;28;20021;-84
2021/12/10 02:13:39;;;;;;;28.70;11.48;;;5.00;99.90;;;;;;5055927;28;20449;-84
2021/12/10 02:16:06;;;;;;;25.50;11.05;;;5.00;99.90;;;;;;5054663;28;20435;-84
2021/12/10 02:18:32;;;;;;;21.95;10.10;;;4.90;99.90;;;;;;5055742;28;20036;-84
2021/12/10 02:21:01;;;;;;;23.67;9.98;;;4.80;99.90;;;;;;5055967;28;20484;-84
2021/12/10 02:23:28;;;;;;;23.50;10.50;;;4.60;99.90;;;;;;5055682;28;20480;-84
2021/12/10 02:25:55;;;;;;;19.48;10.32;;;4.40;99.90;;;;;;5055881;28;20067;-84
2021/12/10 02:28:21;;;;;;;20.08;10.43;;;4.50;99.90;;;;;;5056063;28;20025;-84
2021/12/10 02:30:48;;;;;;;22.48;10.80;;;4.30;99.90;;;;;;5055543;28;20070;-84
2021/12/10 02:33:15;;;;;;;21.33;10.20;;;4.20;99.90;;;;;;5055460;28;20031;-84
2021/12/10 02:35:42;;;;;;;22.67;11.10;;;4.20;99.90;;;;;;5054292;28;20025;-84
2021/12/10 02:38:08;;;;;;;22.45;10.15;;;4.20;99.90;;;;;;5055280;28;20665;-84
2021/12/10 02:40:36;;;;;;;25.45;10.50;;;4.20;99.90;;;;;;5055510;28;20102;-84
2021/12/10 02:43:06;;;;;;;25.90;11.15;;;4.30;99.90;;;;;;5054409;28;20029;-84
2021/12/10 02:45:32;;;;;;;;;;;4.40;99.90;;;;;;5055931;28;20036;-84
2021/12/10 02:47:58;;;;;;;22.63;9.77;;;4.50;99.90;;;;;;5055397;28;19904;-84
2021/12/10 02:50:26;;;;;;;21.60;10.68;;;4.50;99.90;;;;;;5055211;28;20025;-84
2021/12/10 02:52:52;;;;;;;22.13;10.52;;;4.50;99.90;;;;;;5054153;28;20021;-84
2021/12/10 02:55:20;;;;;;;26.88;10.68;;;4.60;99.90;;;;;;5053920;28;20021;-84
2021/12/10 02:57:50;;;;;;;13.25;7.00;;;4.60;99.90;;;;;;5055298;28;20044;-84
2021/12/10 03:00:19;;;;;;;14.15;7.50;;;4.50;99.90;;;;;;5054029;28;20082;-84
2021/12/10 03:02:45;;;;;;;25.10;10.88;;;4.50;99.90;;;;;;5054832;28;20465;-84
2021/12/10 03:05:11;;;;;;;21.88;10.35;;;4.50;99.90;;;;;;5055075;28;20143;-84
2021/12/10 03:07:39;;;;;;;22.40;9.13;;;4.50;99.90;;;;;;5037243;28;20025;-84
2021/12/10 03:10:08;;;;;;;18.65;9.57;;;4.40;99.90;;;;;;5055010;28;20025;-84
2021/12/10 03:12:34;;;;;;;14.65;8.57;;;4.40;99.90;;;;;;5055030;28;20032;-84
2021/12/10 03:15:00;;;;;;;21.10;9.57;;;4.30;99.90;;;;;;5054856;28;20542;-84
2021/12/10 03:17:29;;;;;;;14.95;9.18;;;4.30;99.90;;;;;;5037001;28;20052;-84
2021/12/10 03:19:55;;;;;;;16.73;9.23;;;4.20;99.90;;;;;;5053436;28;20036;-84
2021/12/10 03:22:22;;;;;;;22.63;9.25;;;4.10;99.90;;;;;;5054886;28;20082;-84
2021/12/10 03:24:51;;;;;;;19.77;9.13;;;4.00;99.90;;;;;;5055100;28;20032;-84
2021/12/10 03:27:17;;;;;;;20.05;9.68;;;3.90;99.90;;;;;;5055010;28;20449;-84
2021/12/10 03:29:44;;;;;;;21.17;9.70;;;3.80;99.90;;;;;;5036681;28;20481;-84
2021/12/10 03:32:15;;;;;;;16.90;8.35;;;3.70;99.90;;;;;;5053130;28;20036;-84
2021/12/10 03:34:42;;;;;;;21.52;9.63;;;3.60;99.90;;;;;;5054498;28;20036;-84
2021/12/10 03:37:08;;;;;;;14.65;8.30;;;3.50;99.90;;;;;;5053199;28;20029;-84
2021/12/10 03:39:35;;;;;;;15.20;9.23;;;3.40;99.90;;;;;;5053334;28;20055;-84
2021/12/10 03:42:03;;;;;;;20.67;9.15;;;3.40;99.90;;;;;;5053193;28;20028;-84
2021/12/10 03:44:29;;;;;;;18.77;9.15;;;3.60;99.90;;;;;;5054218;28;20111;-84
2021/12/10 03:46:56;;;;;;;17.50;8.13;;;3.70;99.90;;;;;;5053055;28;20059;-84
2021/12/10 03:49:22;;;;;;;18.13;8.95;;;3.70;99.90;;;;;;5036399;28;20025;-84
2021/12/10 03:51:48;;;;;;;24.75;9.90;;;3.80;99.90;;;;;;5054399;28;20029;-84
2021/12/10 03:54:17;;;;;;;22.40;9.82;;;3.80;99.90;;;;;;5054185;28;20021;-84
2021/12/10 03:56:45;;;;;;;16.48;8.20;;;3.90;99.90;;;;;;5053028;28;20021;-84
2021/12/10 03:59:13;;;;;;;19.70;10.85;;;3.90;99.90;;;;;;5053968;28;20025;-84
2021/12/10 04:01:42;;;;;;;16.40;8.75;;;3.90;99.90;;;;;;5036097;28;20033;-84
2021/12/10 04:04:10;;;;;;;15.75;9.90;;;3.80;99.90;;;;;;5052949;28;20017;-84
2021/12/10 04:06:37;;;;;;;16.70;9.30;;;3.70;99.90;;;;;;5053906;28;20358;-84
2021/12/10 04:09:05;;;;;;;21.45;10.18;;;3.70;99.90;;;;;;5053592;28;20400;-84
2021/12/10 04:11:31;;;;;;;18.33;9.05;;;3.50;99.90;;;;;;5053806;28;20085;-84
2021/12/10 04:13:58;;;;;;;22.17;10.38;;;3.40;99.90;;;;;;5053976;28;20024;-84
2021/12/10 04:16:27;;;;;;;22.75;9.73;;;3.20;99.90;;;;;;5054104;28;20024;-84
2021/12/10 04:18:54;;;;;;;20.33;10.80;;;3.10;99.90;;;;;;5052336;28;20624;-84
2021/12/10 04:21:20;;;;;;;20.42;9.45;;;3.00;99.90;;;;;;5052580;28;20115;-84
2021/12/10 04:23:47;;;;;;;17.83;9.25;;;3.00;99.90;;;;;;5036119;28;20028;-84
2021/12/10 04:26:17;;;;;;;19.85;9.55;;;2.90;99.90;;;;;;5052580;28;20029;-84
2021/12/10 04:28:43;;;;;;;16.10;7.97;;;2.90;99.90;;;;;;5036158;28;20037;-84
2021/12/10 04:31:09;;;;;;;17.25;9.75;;;2.90;99.90;;;;;;5052731;28;20032;-84
2021/12/10 04:33:35;;;;;;;19.52;9.88;;;2.90;99.90;;;;;;5052778;28;20021;-84
2021/12/10 04:36:02;;;;;;;21.70;11.18;;;2.80;99.90;;;;;;5052507;28;20376;-84
2021/12/10 04:38:32;;;;;;;19.45;9.27;;;2.70;99.90;;;;;;5053476;28;20025;-84
2021/12/10 04:41:00;;;;;;;18.92;9.30;;;2.60;99.90;;;;;;5052467;28;20049;-84
2021/12/10 04:43:27;;;;;;;15.68;7.13;;;2.60;99.90;;;;;;5035736;28;20118;-84
2021/12/10 04:45:56;;;;;;;17.52;9.00;;;2.60;99.90;;;;;;5035760;28;20052;-84
2021/12/10 04:48:23;;;;;;;17.45;9.13;;;2.50;99.90;;;;;;5035614;28;20524;-84
2021/12/10 04:50:49;;;;;;;17.88;9.02;;;2.50;99.90;;;;;;5052235;28;20025;-84
2021/12/10 04:53:15;;;;;;;16.48;9.68;;;2.40;99.90;;;;;;5052224;28;20025;-84
2021/12/10 04:55:42;;;;;;;20.80;10.80;;;2.40;99.90;;;;;;5052312;28;20032;-84
2021/12/10 04:58:09;;;;;;;19.38;9.85;;;2.50;99.90;;;;;;5053825;28;20431;-84
2021/12/10 05:00:43;;;;;;;20.45;10.45;;;2.40;99.90;;;;;;5051992;28;20387;-84
2021/12/10 05:03:11;;;;;;;20.30;10.60;;;2.40;99.90;;;;;;5051843;28;20025;-84
2021/12/10 05:05:38;;;;;;;24.92;11.68;;;2.40;99.90;;;;;;5051949;28;20619;-84
2021/12/10 05:08:05;;;;;;;18.33;10.00;;;2.60;99.90;;;;;;5053893;28;20024;-85
2021/12/10 05:10:32;;;;;;;19.02;10.73;;;2.30;99.90;;;;;;5035999;28;20025;-80
2021/12/10 05:12:58;;;;;;;15.63;8.77;;;2.30;99.90;;;;;;5053435;28;20025;-85
2021/12/10 05:15:28;;;;;;;18.30;10.25;;;2.20;99.90;;;;;;5052815;28;20155;-84
2021/12/10 05:17:55;;;;;;;18.30;10.07;;;2.40;99.90;;;;;;5066692;28;20376;-84
2021/12/10 05:20:28;;;;;;;24.23;10.55;;;2.40;99.90;;;;;;5058570;28;20297;-84
2021/12/10 05:22:54;;;;;;;21.88;11.23;;;2.10;99.90;;;;;;5057333;28;20029;-84
2021/12/10 05:25:19;;;;;;;17.83;9.25;;;2.20;99.90;;;;;;5039216;28;20518;-84
2021/12/10 05:27:47;;;;;;;17.02;8.07;;;2.20;99.90;;;;;;5039169;28;20763;-84
2021/12/10 05:30:19;;;;;;;18.33;9.10;;;2.40;99.90;;;;;;5056952;28;20380;-84
2021/12/10 05:32:45;;;;;;;16.23;7.85;;;2.30;99.90;;;;;;5056868;28;20028;-85
2021/12/10 05:35:11;;;;;;;17.80;8.50;;;2.30;99.90;;;;;;5038898;28;20108;-85
2021/12/10 05:37:37;;;;;;;16.73;9.23;;;2.40;99.90;;;;;;5038869;28;20104;-82
2021/12/10 05:40:10;;;;;;;15.40;7.75;;;2.50;99.90;;;;;;5059177;28;20474;-85
2021/12/10 05:42:36;;;;;;;15.65;7.65;;;2.50;99.90;;;;;;5038773;28;20029;-84
2021/12/10 05:45:03;;;;;;;17.45;8.60;;;2.50;99.90;;;;;;5057286;28;20020;-84
2021/12/10 05:47:28;;;;;;;15.95;7.22;;;2.50;99.90;;;;;;5055979;28;20032;-85
2021/12/10 05:49:54;;;;;;;19.73;9.10;;;2.60;99.90;;;;;;5041434;28;20025;-84
2021/12/10 05:52:20;;;;;;;19.27;8.27;;;2.70;99.90;;;;;;5038700;28;20021;-84
2021/12/10 05:54:45;;;;;;;15.77;7.00;;;2.70;99.90;;;;;;5056968;28;20555;-84
2021/12/10 05:57:12;;;;;;;17.02;8.60;;;2.70;99.90;;;;;;5045788;28;20185;-84
2021/12/10 05:59:37;;;;;;;14.40;7.22;;;2.60;99.90;;;;;;5065499;28;20032;-84
2021/12/10 06:02:04;;;;;;;16.58;8.25;;;2.60;99.90;;;;;;5056269;28;20384;-84
2021/12/10 06:04:30;;;;;;;16.10;7.50;;;2.60;99.90;;;;;;5056329;28;20021;-84
2021/12/10 06:06:56;;;;;;;13.25;8.15;;;2.60;99.90;;;;;;5049174;28;20016;-84
2021/12/10 06:09:23;;;;;;;18.88;8.23;;;2.70;99.90;;;;;;5055171;28;20028;-85
2021/12/10 06:11:48;;;;;;;11.88;6.70;;;2.70;99.90;;;;;;5038294;28;20029;-84
2021/12/10 06:14:14;;;;;;;19.50;9.52;;;2.70;99.90;;;;;;5056287;28;20021;-83
2021/12/10 06:16:40;;;;;;;14.60;7.53;;;2.80;99.90;;;;;;5056801;28;20071;-83
2021/12/10 06:19:06;;;;;;;16.45;7.90;;;2.80;99.90;;;;;;5057263;28;20025;-84
2021/12/10 06:21:34;;;;;;;14.23;8.05;;;2.80;99.90;;;;;;5058303;28;20119;-84
2021/12/10 06:24:00;;;;;;;16.80;8.75;;;2.80;99.90;;;;;;5076319;28;20017;-84
2021/12/10 06:26:26;;;;;;;16.55;8.60;;;2.90;99.90;;;;;;5057213;28;20016;-83
2021/12/10 06:28:52;;;;;;;15.52;7.50;;;2.90;99.90;;;;;;5056982;28;20109;-83
2021/12/10 06:31:21;;;;;;;19.60;9.30;;;2.80;99.90;;;;;;5052017;28;20024;-83
2021/12/10 06:33:48;;;;;;;12.55;6.75;;;2.90;99.90;;;;;;5055572;28;20484;-79
2021/12/10 06:36:15;;;;;;;13.82;6.78;;;2.90;99.90;;;;;;5055480;28;20055;-83
2021/12/10 06:38:42;;;;;;;21.13;9.43;;;3.00;99.90;;;;;;5037647;28;20052;-82
2021/12/10 06:41:07;;;;;;;17.10;8.68;;;3.00;99.90;;;;;;5063124;28;20056;-82
2021/12/10 06:43:33;;;;;;;19.70;8.73;;;3.10;99.90;;;;;;5066452;28;20048;-82
2021/12/10 06:46:01;;;;;;;15.48;8.70;;;3.10;99.90;;;;;;5057862;28;20022;-82
2021/12/10 06:48:27;;;;;;;17.73;8.70;;;3.20;99.90;;;;;;5037346;28;20087;-82
2021/12/10 06:50:56;;;;;;;19.83;10.02;;;3.20;99.90;;;;;;5054287;28;20108;-82
2021/12/10 06:53:24;;;;;;;16.95;8.90;;;3.20;99.90;;;;;;5063129;28;20020;-81
2021/12/10 06:55:51;;;;;;;19.05;9.23;;;3.20;99.90;;;;;;5072853;28;20028;-82
2021/12/10 06:58:18;;;;;;;20.42;10.32;;;3.20;99.90;;;;;;5054609;28;20094;-82
2021/12/10 07:01:03;;;;;;;20.17;9.55;;;3.30;99.90;;;;;;5072666;28;20024;-82
2021/12/10 07:03:29;;;;;;;13.10;7.30;;;3.30;99.90;;;;;;5072510;28;20028;-82
2021/12/10 07:05:57;;;;;;;20.52;10.57;;;3.30;99.90;;;;;;5072213;28;20358;-82
2021/12/10 07:08:26;;;;;;;13.93;6.85;;;3.30;99.90;;;;;;5065795;28;20480;-82
2021/12/10 07:10:52;;;;;;;17.15;9.40;;;3.20;99.90;;;;;;5056782;28;20116;-82
2021/12/10 07:13:18;;;;;;;16.15;9.55;;;3.20;99.90;;;;;;5039487;28;20107;-82
2021/12/10 07:15:46;;;;;;;20.40;7.80;;;3.20;99.90;;;;;;5054676;28;20032;-82
2021/12/10 07:18:13;;;;;;;18.00;8.77;;;3.20;99.90;;;;;;5062590;28;20037;-82
2021/12/10 07:20:41;;;;;;;19.23;9.77;;;3.20;99.90;;;;;;5070824;28;20032;-83
2021/12/10 07:23:07;;;;;;;18.10;9.25;;;3.20;99.90;;;;;;5053518;28;20028;-82
2021/12/10 07:25:32;;;;;;;12.30;7.88;;;3.20;99.90;;;;;;5071702;28;20077;-82
2021/12/10 07:27:58;;;;;;;17.45;8.90;;;3.20;99.90;;;;;;5074057;28;20168;-82
2021/12/10 07:30:26;;;;;;;12.80;7.05;;;3.20;99.90;;;;;;5092319;28;20454;-83
2021/12/10 07:32:52;;;;;;;12.88;7.00;;;3.20;99.90;;;;;;5092043;28;20165;-83
2021/12/10 07:35:18;;;;;;;15.68;7.88;;;3.20;99.90;;;;;;5092157;28;20048;-79
2021/12/10 07:37:44;;;;;;;16.08;8.55;;;3.20;99.90;;;;;;5089244;28;20024;-79
2021/12/10 07:40:16;;;;;;;14.43;7.45;;;3.20;99.90;;;;;;5053491;28;20051;-79
2021/12/10 07:42:42;;;;;;;18.33;7.95;;;3.20;99.90;;;;;;5053668;28;20040;-79
2021/12/10 07:45:09;;;;;;;13.57;7.72;;;3.20;99.90;;;;;;5071619;28;20012;-79
2021/12/10 07:47:36;;;;;;;11.02;6.30;;;3.10;99.90;;;;;;5071433;28;20024;-80
2021/12/10 07:50:06;;;;;;;18.05;7.70;;;3.10;99.90;;;;;;5071806;28;20048;-79
2021/12/10 07:52:34;;;;;;;14.20;7.53;;;3.10;99.90;;;;;;5071877;28;20031;-79
2021/12/10 07:55:04;;;;;;;15.85;8.35;;;3.20;99.90;;;;;;5071717;28;20292;-79
2021/12/10 07:57:30;;;;;;;13.73;7.53;;;3.10;99.90;;;;;;5053790;28;20036;-79
2021/12/10 07:59:56;;;;;;;15.10;8.07;;;3.10;99.90;;;;;;5053438;28;20040;-79
2021/12/10 08:02:22;;;;;;;14.38;8.77;;;3.10;99.90;;;;;;5071639;28;20079;-79
2021/12/10 08:04:48;;;;;;;16.35;7.47;;;3.00;99.90;;;;;;5072608;28;20496;-79
2021/12/10 08:07:14;;;;;;;15.57;7.35;;;3.00;99.90;;;;;;5055933;28;20103;-79
2021/12/10 08:09:41;;;;;;;15.07;8.27;;;3.00;99.90;;;;;;5073956;28;20035;-79
2021/12/10 08:12:07;;;;;;;14.73;7.97;;;2.90;99.90;;;;;;5073711;28;20024;-79
2021/12/10 08:14:32;;;;;;;17.73;8.88;;;2.90;99.90;;;;;;5071658;28;20034;-79
2021/12/10 08:16:58;;;;;;;13.90;7.97;;;2.80;99.90;;;;;;5058116;28;20025;-79
2021/12/10 08:19:24;;;;;;;13.60;7.05;;;2.80;99.90;;;;;;5071261;28;20024;-79
2021/12/10 08:21:49;;;;;;;11.43;7.10;;;2.90;99.90;;;;;;5071511;28;20032;-79
2021/12/10 08:24:15;;;;;;;11.77;6.38;;;2.90;99.90;;;;;;5071169;28;20020;-79
2021/12/10 08:26:41;;;;;;;14.75;7.35;;;2.90;99.90;;;;;;5070273;28;20504;-79
2021/12/10 08:29:08;;;;;;;14.52;8.25;;;2.90;99.90;;;;;;5083442;28;20035;-79
2021/12/10 08:31:34;;;;;;;11.25;5.80;;;2.90;99.90;;;;;;5073519;28;20043;-79
2021/12/10 08:34:00;;;;;;;13.55;7.47;;;2.90;99.90;;;;;;5073631;28;20494;-79
2021/12/10 08:36:28;;;;;;;13.77;7.22;;;3.00;99.90;;;;;;5073968;28;20101;-79
2021/12/10 08:38:54;;;;;;;11.98;6.65;;;3.00;99.90;;;;;;5091558;28;20020;-79
2021/12/10 08:41:24;;;;;;;12.00;6.85;;;3.10;99.90;;;;;;5079796;28;20082;-79
2021/12/10 08:43:50;;;;;;;12.50;7.63;;;3.20;99.90;;;;;;5071034;28;20032;-79
2021/12/10 08:46:17;;;;;;;15.65;7.47;;;3.20;99.90;;;;;;5071209;28;20027;-79
2021/12/10 08:48:43;;;;;;;13.25;6.47;;;3.30;99.90;;;;;;5071234;28;20024;-79
2021/12/10 08:51:13;;;;;;;11.05;7.15;;;3.30;99.90;;;;;;5073469;28;20052;-79
2021/12/10 08:53:39;;;;;;;14.55;6.45;;;3.20;99.90;;;;;;5074903;28;20028;-79
2021/12/10 08:56:05;;;;;;;12.98;7.15;;;3.20;99.90;;;;;;5075219;28;20099;-79
2021/12/10 08:58:31;;;;;;;17.20;6.50;;;3.30;99.90;;;;;;5075072;28;20107;-79
2021/12/10 09:01:19;;;;;;;10.30;5.65;;;3.30;99.90;;;;;;5074895;28;20383;-79
2021/12/10 09:03:49;;;;;;;14.13;5.88;;;3.20;99.90;;;;;;5075048;28;20078;-79
2021/12/10 09:06:17;;;;;;;7.10;4.72;;;3.40;99.90;;;;;;5074799;28;20052;-79
2021/12/10 09:08:43;;;;;;;12.60;5.57;;;3.40;99.90;;;;;;5074718;28;20063;-79
2021/12/10 09:11:11;;;;;;;13.48;7.28;;;3.50;99.90;;;;;;5074831;28;20465;-79
2021/12/10 09:13:37;;;;;;;12.23;5.68;;;3.50;99.90;;;;;;5074923;28;20031;-79
2021/12/10 09:16:07;;;;;;;10.60;5.07;;;3.60;99.90;;;;;;5074984;28;20103;-79
2021/12/10 09:18:34;;;;;;;11.20;5.13;;;3.60;99.90;;;;;;5074549;28;20016;-79
2021/12/10 09:21:01;;;;;;;11.80;5.53;;;3.50;99.90;;;;;;5074833;28;20040;-79
2021/12/10 09:23:28;;;;;;;16.88;5.13;;;3.60;99.90;;;;;;5073705;28;20309;-79
2021/12/10 09:26:00;;;;;;;14.30;4.95;;;3.60;99.90;;;;;;5055900;28;20077;-79
2021/12/10 09:28:26;;;;;;;12.20;6.05;;;3.40;99.90;;;;;;5081174;28;20020;-79
2021/12/10 09:30:55;;;;;;;10.30;5.20;;;3.30;99.90;;;;;;5094403;28;20032;-79
2021/12/10 09:33:21;;;;;;;13.32;4.72;;;3.30;99.90;;;;;;5094703;28;20028;-79
2021/12/10 09:35:47;;;;;;;9.52;4.95;;;3.20;99.90;;;;;;5094385;28;20133;-79
2021/12/10 09:38:13;;;;;;;8.77;4.32;;;3.20;99.90;;;;;;5092672;28;20039;-79
2021/12/10 09:40:42;;;;;;;11.13;5.88;;;3.40;99.90;;;;;;5055883;28;20127;-79
2021/12/10 09:43:10;;;;;;;13.60;5.72;;;3.40;99.90;;;;;;5074394;28;20354;-79
2021/12/10 09:45:39;;;;;;;8.32;4.47;;;3.50;99.90;;;;;;5074239;28;20028;-79
2021/12/10 09:48:07;;;;;;;13.63;5.40;;;3.60;99.90;;;;;;5074295;28;20422;-79
2021/12/10 09:50:37;;;;;;;11.68;5.35;;;3.80;99.90;;;;;;5074213;28;20024;-79
2021/12/10 09:53:04;;;;;;;8.30;5.18;;;4.00;99.90;;;;;;5073648;28;20025;-78
2021/12/10 09:55:30;;;;;;;11.85;5.63;;;4.20;99.90;;;;;;5074035;28;20486;-79
2021/12/10 09:57:56;;;;;;;9.60;4.63;;;4.20;99.90;;;;;;5073876;28;20027;-79
2021/12/10 10:00:30;;;;;;;11.10;4.82;;;4.20;99.90;;;;;;5056126;28;20107;-79
2021/12/10 10:02:58;;;;;;;10.70;5.20;;;4.10;99.90;;;;;;5073143;28;20392;-79
2021/12/10 10:05:27;;;;;;;9.63;4.68;;;4.00;99.90;;;;;;5073451;28;20086;-79
2021/12/10 10:07:55;;;;;;;9.43;5.17;;;3.90;99.90;;;;;;5073722;28;20021;-79
2021/12/10 10:10:23;;;;;;;9.43;5.57;;;3.90;99.90;;;;;;5073706;28;20021;-79
2021/12/10 10:12:51;;;;;;;9.68;5.13;;;3.90;99.90;;;;;;5073778;28;20027;-79
2021/12/10 10:15:20;;;;;;;6.60;4.47;;;3.90;99.90;;;;;;5055748;28;20122;-79
2021/12/10 10:17:46;;;;;;;9.40;5.03;;;3.90;99.90;;;;;;5055273;28;20499;-79
2021/12/10 10:20:16;;;;;;;10.43;5.43;;;3.80;99.90;;;;;;5073643;28;20037;-79
2021/12/10 10:22:44;;;;;;;8.47;4.23;;;3.90;99.90;;;;;;5073430;28;20036;-79
2021/12/10 10:25:11;;;;;;;9.75;4.70;;;3.90;99.90;;;;;;5073691;28;20249;-79
2021/12/10 10:27:39;;;;;;;9.02;5.20;;;4.00;99.90;;;;;;5073500;28;20427;-79
2021/12/10 10:30:05;;;;;;;9.95;5.03;;;4.00;99.90;;;;;;5071586;28;20568;-78
2021/12/10 10:32:33;;;;;;;8.02;4.60;;;4.00;99.90;;;;;;5073342;28;20016;-79
2021/12/10 10:35:04;;;;;;;11.98;5.07;;;4.00;99.90;;;;;;5073027;28;20024;-79
2021/12/10 10:37:31;;;;;;;11.02;5.28;;;4.00;99.90;;;;;;5073222;28;20098;-79
2021/12/10 10:39:58;;;;;;;7.85;4.53;;;4.10;99.90;;;;;;5054925;28;20075;-79
2021/12/10 10:42:29;;;;;;;11.23;4.78;;;4.10;99.90;;;;;;5073201;28;20082;-79
2021/12/10 10:44:59;;;;;;;12.02;5.38;;;4.10;99.90;;;;;;5054715;28;20094;-79
2021/12/10 10:47:26;;;;;;;;;;;4.20;99.90;;;;;;5071921;28;20025;-83
2021/12/10 10:50:18;;;;;;;5.60;3.50;;;4.20;99.90;;;;;;5073397;28;19919;-79
2021/12/10 10:52:53;;;;;;;7.22;4.50;;;4.20;99.90;;;;;;5054667;28;20070;-79
2021/12/10 10:55:23;;;;;;;7.88;4.22;;;4.20;99.90;;;;;;5045942;28;20032;-79
2021/12/10 10:57:58;;;;;;;10.80;4.45;;;4.20;99.90;;;;;;5052257;28;20424;-79
2021/12/10 11:00:39;;;;;;;9.13;4.63;;;4.30;99.90;;;;;;5037226;28;20037;-79
2021/12/10 11:03:10;;;;;;;7.47;3.95;;;4.30;99.90;;;;;;5055077;28;20461;-79
2021/12/10 11:05:45;;;;;;;10.23;4.60;;;4.20;99.90;;;;;;5055282;28;20148;-79
2021/12/10 11:08:11;;;;;;;8.07;3.53;;;4.30;99.90;;;;;;5052574;28;20066;-79
2021/12/10 11:10:40;;;;;;;8.88;4.75;;;4.30;99.90;;;;;;5052502;28;20103;-79
2021/12/10 11:13:10;;;;;;;9.32;4.45;;;4.30;99.90;;;;;;5052060;28;20032;-82
2021/12/10 11:15:38;;;;;;;8.45;4.05;;;4.30;99.90;;;;;;5060293;28;20503;-82
2021/12/10 11:18:03;;;;;;;12.40;4.97;;;4.50;99.90;;;;;;5072076;28;20028;-81
2021/12/10 11:20:35;;;;;;;11.35;4.95;;;4.50;99.90;;;;;;5063444;28;20028;-82
2021/12/10 11:23:06;;;;;;;7.40;4.18;;;4.50;99.90;;;;;;5057396;28;20021;-82
2021/12/10 11:25:48;;;;;;;9.55;4.55;;;4.50;99.90;;;;;;5034507;28;20041;-82
2021/12/10 11:28:30;;;;;;;6.35;4.55;;;4.50;99.90;;;;;;5064463;28;20029;-82
2021/12/10 11:31:03;;;;;;;9.98;4.55;;;4.50;99.90;;;;;;5063325;28;20421;-82
2021/12/10 11:33:35;;;;;;;6.68;4.05;;;4.50;99.90;;;;;;5081721;28;20013;-82
2021/12/10 11:36:13;;;;;;;7.95;4.50;;;4.50;99.90;;;;;;5071578;28;20456;-82
2021/12/10 11:38:40;;;;;;;8.93;4.32;;;4.40;99.90;;;;;;5053178;28;20027;-82
2021/12/10 11:41:17;;;;;;;6.95;4.20;;;4.40;99.90;;;;;;5070450;28;20082;-82
2021/12/10 11:44:06;;;;;;;7.97;4.20;;;4.40;99.90;;;;;;5057695;28;21096;-82
2021/12/10 11:46:51;;;;;;;12.32;4.53;;;4.40;99.90;;;;;;5056126;28;20549;-82
2021/12/10 11:49:46;;;;;;;10.18;4.30;;;4.40;99.90;;;;;;5039039;28;20073;-82
2021/12/10 11:52:18;;;;;;;9.70;4.20;;;4.30;99.90;;;;;;5061248;28;20036;-82
2021/12/10 11:54:53;;;;;;;7.50;4.13;;;4.30;99.90;;;;;;5060074;28;20024;-82
2021/12/10 11:57:32;;;;;;;9.13;4.90;;;4.40;99.90;;;;;;5037499;28;20025;-82
2021/12/10 12:00:03;;;;;;;11.05;4.45;;;4.40;99.90;;;;;;5046015;28;20032;-82
2021/12/10 12:02:34;;;;;;;9.90;4.75;;;4.40;99.90;;;;;;5053364;28;20028;-82
2021/12/10 12:05:14;;;;;;;7.88;4.13;;;4.40;99.90;;;;;;5053264;28;20032;-82
2021/12/10 12:07:48;;;;;;;6.78;3.85;;;4.40;99.90;;;;;;5053658;28;20032;-82
2021/12/10 12:10:27;;;;;;;9.23;4.25;;;4.40;99.90;;;;;;5053685;28;20033;-83
2021/12/10 12:12:55;;;;;;;7.93;4.25;;;4.40;99.90;;;;;;5054316;28;20021;-82
2021/12/10 12:15:24;;;;;;;8.60;4.43;;;4.40;99.90;;;;;;5062078;28;20020;-82
2021/12/10 12:17:53;;;;;;;10.68;4.00;;;4.40;99.90;;;;;;5058470;28;20146;-82
2021/12/10 12:20:31;;;;;;;7.25;3.60;;;4.30;99.90;;;;;;5066056;28;20033;-82
2021/12/10 12:26:16;;;;;;;5.50;3.60;;;4.30;99.90;;;;;;5072892;28;20450;-82
2021/12/10 12:29:15;;;;;;;9.93;4.38;;;4.30;99.90;;;;;;5073745;28;20469;-82
2021/12/10 12:31:43;;;;;;;7.13;3.85;;;4.30;99.90;;;;;;5016483;28;20033;-83
2021/12/10 12:34:14;;;;;;;7.55;3.80;;;4.20;99.90;;;;;;5073402;28;20476;-84
2021/12/10 12:36:42;;;;;;;;;;;4.20;99.90;;;;;;5073851;28;20025;-82
2021/12/10 12:39:28;;;;;;;7.43;4.03;;;4.20;99.90;;;;;;5065235;28;20395;-82
2021/12/10 12:42:05;;;;;;;12.02;4.00;;;4.10;99.90;;;;;;5063332;28;20477;-81
2021/12/10 12:44:35;;;;;;;6.50;3.70;;;4.10;99.90;;;;;;5048608;28;20029;-81
2021/12/10 12:47:12;;;;;;;10.98;3.97;;;4.00;99.90;;;;;;5055755;28;20108;-82
2021/12/10 12:49:40;;;;;;;11.05;4.15;;;4.00;99.90;;;;;;5036109;28;20017;-83
2021/12/10 12:52:12;;;;;;;6.90;4.13;;;4.00;99.90;;;;;;5054452;28;20378;-82
2021/12/10 12:54:59;;;;;;;5.00;3.63;;;4.00;99.90;;;;;;5033169;28;20081;-81
2021/12/10 12:57:37;;;;;;;6.85;3.35;;;4.00;99.90;;;;;;5054191;28;20552;-82
2021/12/10 13:00:07;;;;;;;8.30;3.88;;;4.00;99.90;;;;;;5032977;28;20071;-83
2021/12/10 13:02:33;;;;;;;8.88;3.92;;;3.90;99.90;;;;;;5051237;28;20086;-83
2021/12/10 13:04:58;;;;;;;8.63;4.00;;;3.90;99.90;;;;;;5033139;28;20025;-83
2021/12/10 13:07:25;;;;;;;8.00;4.05;;;3.90;99.90;;;;;;5051071;28;20091;-82
2021/12/10 13:09:55;;;;;;;7.85;4.88;;;3.80;99.90;;;;;;5051465;28;20048;-82
2021/12/10 13:12:57;;;;;;;8.05;4.20;;;3.80;99.90;;;;;;5070447;28;20053;-82
2021/12/10 13:15:25;;;;;;;7.40;3.22;;;3.80;99.90;;;;;;5062357;28;20036;-82